Time;durP1;ratioP1;P1;durP2;ratioP2;P2;SDS_P1;SDS_P2;PMS_P1;PMS_P2;Temp;Humidity;BMP_temperature;BMP_pressure;BME280_temperature;BME280_humidity;BME280_pressure;Samples;Min_cycle;Max_cycle;Signal;HPM_P1;HPM_P2
2022/04/13 07:51:11;;;;;;;;;1.00;1.00;;;;;;;;1555114;27;83565;-55
2022/04/13 07:52:00;;;;;;;;;1.00;1.00;;;;;;;;1553221;28;83774;-56
2022/04/13 07:52:45;;;;;;;;;3.20;3.20;;;;;;;;1551885;28;83334;-74
2022/04/13 07:53:30;;;;;;;;;5.33;5.33;;;;;;;;1549329;28;83910;-73
2022/04/13 07:54:15;;;;;;;;;4.00;4.00;;;;;;;;1553347;28;83362;-73
2022/04/13 07:55:01;;;;;;;;;4.67;4.67;;;;;;;;1553162;28;83684;-73
2022/04/13 07:55:46;;;;;;;;;5.33;5.33;;;;;;;;1552950;28;83436;-73
2022/04/13 07:56:31;;;;;;;;;5.00;5.00;;;;;;;;1552782;28;83640;-73
2022/04/13 07:57:16;;;;;;;;;6.67;6.67;;;;;;;;1553147;28;83640;-74
2022/04/13 07:58:02;;;;;;;;;4.00;4.00;;;;;;;;1551197;28;84034;-73
2022/04/13 07:58:47;;;;;;;;;4.00;4.00;;;;;;;;1553191;28;83507;-73
2022/04/13 07:59:32;;;;;;;;;3.67;3.67;;;;;;;;1552671;28;83228;-73
2022/04/13 08:00:17;;;;;;;;;4.00;4.00;;;;;;;;1553213;28;83981;-73
2022/04/13 08:01:03;;;;;;;;;4.67;4.67;;;;;;;;1547867;28;83647;-74
2022/04/13 08:01:48;;;;;;;;;4.00;4.00;;;;;;;;1546803;28;83657;-73
2022/04/13 08:02:34;;;;;;;;;4.00;4.00;;;;;;;;1551016;28;83277;-73
2022/04/13 08:03:19;;;;;;;;;5.50;5.50;;;;;;;;1547197;28;83128;-73
2022/04/13 08:04:04;;;;;;;;;3.33;3.33;;;;;;;;1546865;28;83548;-73
2022/04/13 08:04:50;;;;;;;;;4.00;4.00;;;;;;;;1546722;28;83722;-73
2022/04/13 08:05:35;;;;;;;;;4.00;4.00;;;;;;;;1546840;28;83476;-74
2022/04/13 08:06:21;;;;;;;;;3.00;3.00;;;;;;;;1547034;28;83656;-73
2022/04/13 08:07:06;;;;;;;;;3.00;3.00;;;;;;;;1547110;28;83378;-73
2022/04/13 08:07:51;;;;;;;;;5.67;5.67;;;;;;;;1546294;28;83414;-73
2022/04/13 08:08:37;;;;;;;;;5.00;5.00;;;;;;;;1547058;28;83295;-73
2022/04/13 08:09:23;;;;;;;;;7.33;7.33;;;;;;;;1547172;28;83664;-73
2022/04/13 08:10:09;;;;;;;;;4.75;4.75;;;;;;;;1549277;28;83234;-73
2022/04/13 08:10:54;;;;;;;;;6.67;6.67;;;;;;;;1552829;28;83506;-74
2022/04/13 08:11:39;;;;;;;;;5.67;5.67;;;;;;;;1553243;28;83498;-73
2022/04/13 08:12:28;;;;;;;;;5.33;5.33;;;;;;;;1556113;28;83479;-73
2022/04/13 08:13:13;;;;;;;;;4.00;4.00;;;;;;;;1543131;28;83834;-74
2022/04/13 08:13:58;;;;;;;;;4.33;4.33;;;;;;;;1540943;28;83297;-73
2022/04/13 08:14:47;;;;;;;;;4.33;4.33;;;;;;;;1540883;28;83934;-73
2022/04/13 08:15:32;;;;;;;;;5.00;5.00;;;;;;;;1540963;28;84529;-73
2022/04/13 08:16:17;;;;;;;;;6.67;6.67;;;;;;;;1541018;28;83713;-73
2022/04/13 08:17:03;;;;;;;;;5.00;5.00;;;;;;;;1540774;28;83940;-73
2022/04/13 08:17:49;;;;;;;;;5.25;5.25;;;;;;;;1540754;28;83985;-73
2022/04/13 08:18:34;;;;;;;;;6.00;6.00;;;;;;;;1540810;28;83885;-73
2022/04/13 08:19:19;;;;;;;;;6.33;6.33;;;;;;;;1540843;28;83865;-73
2022/04/13 08:20:06;;;;;;;;;5.67;5.67;;;;;;;;1540753;28;83868;-73
2022/04/13 08:20:51;;;;;;;;;3.00;3.00;;;;;;;;1540711;28;83937;-73
2022/04/13 08:21:38;;;;;;;;;6.00;6.00;;;;;;;;1552795;28;85356;-73
2022/04/13 08:22:27;;;;;;;;;7.00;7.00;;;;;;;;1553349;28;83288;-73
2022/04/13 08:23:12;;;;;;;;;6.00;6.00;;;;;;;;1547481;28;83415;-73
2022/04/13 08:23:57;;;;;;;;;6.67;6.67;;;;;;;;1540724;28;83826;-73
2022/04/13 08:24:42;;;;;;;;;6.00;6.00;;;;;;;;1540657;28;83961;-73
2022/04/13 08:25:28;;;;;;;;;6.67;6.67;;;;;;;;1540542;28;83604;-73
2022/04/13 08:26:16;;;;;;;;;7.00;7.00;;;;;;;;1540770;28;83952;-73
2022/04/13 08:27:01;;;;;;;;;9.75;9.75;;;;;;;;1540545;28;84030;-74
2022/04/13 08:27:46;;;;;;;;;7.67;7.67;;;;;;;;1540861;28;83895;-74
2022/04/13 08:28:32;;;;;;;;;9.33;9.33;;;;;;;;1540748;28;83749;-74
2022/04/13 08:29:17;;;;;;;;;5.00;5.00;;;;;;;;1540756;28;83921;-74
2022/04/13 08:30:03;;;;;;;;;7.00;7.00;;;;;;;;1540711;28;83236;-73
2022/04/13 08:30:48;;;;;;;;;8.00;8.00;;;;;;;;1540589;28;84259;-74
2022/04/13 08:31:33;;;;;;;;;7.33;7.33;;;;;;;;1540791;28;84031;-74
2022/04/13 08:32:19;;;;;;;;;7.00;7.00;;;;;;;;1540788;28;83941;-74
2022/04/13 08:33:04;;;;;;;;;7.00;7.00;;;;;;;;1545942;28;83411;-74
2022/04/13 08:33:50;;;;;;;;;6.00;6.00;;;;;;;;1552942;28;83947;-73
2022/04/13 08:34:36;;;;;;;;;6.75;6.75;;;;;;;;1555630;28;83249;-73
2022/04/13 08:35:21;;;;;;;;;8.67;8.67;;;;;;;;1553202;28;83293;-74
2022/04/13 08:36:06;;;;;;;;;7.00;7.00;;;;;;;;1553000;28;83479;-73
2022/04/13 08:36:51;;;;;;;;;9.33;9.33;;;;;;;;1552916;28;83479;-74
2022/04/13 08:37:37;;;;;;;;;7.33;7.33;;;;;;;;1547333;28;83692;-74
2022/04/13 08:38:22;;;;;;;;;8.00;8.00;;;;;;;;1546438;28;83466;-74
2022/04/13 08:39:14;;;;;;;;;9.00;9.00;;;;;;;;1546389;28;83600;-74
2022/04/13 08:39:59;;;;;;;;;8.50;8.50;;;;;;;;1546333;28;83100;-74
2022/04/13 08:41:07;;;;;;;;;7.00;7.00;;;;;;;;1546919;28;83500;-74
2022/04/13 08:41:56;;;;;;;;;8.75;8.75;;;;;;;;1546677;28;83643;-74
2022/04/13 08:42:47;;;;;;;;;7.75;7.75;;;;;;;;1545357;28;83444;-74
2022/04/13 08:43:38;;;;;;;;;8.00;8.00;;;;;;;;1540908;28;83249;-74
2022/04/13 08:44:34;;;;;;;;;8.00;8.00;;;;;;;;1540834;28;83319;-74
2022/04/13 08:45:24;;;;;;;;;9.75;8.25;;;;;;;;1540691;28;83168;-74
2022/04/13 08:46:13;;;;;;;;;10.00;10.00;;;;;;;;1540574;28;83475;-75
2022/04/13 08:47:01;;;;;;;;;7.25;7.25;;;;;;;;1540374;28;83359;-74
2022/04/13 08:47:46;;;;;;;;;7.00;7.00;;;;;;;;1540544;28;83484;-74
2022/04/13 08:48:33;;;;;;;;;8.00;7.00;;;;;;;;1540828;28;83521;-74
2022/04/13 08:49:19;;;;;;;;;8.00;8.00;;;;;;;;1540753;28;83378;-74
2022/04/13 08:50:04;;;;;;;;;4.33;4.33;;;;;;;;1540616;28;83436;-74
2022/04/13 08:50:53;;;;;;;;;7.50;7.50;;;;;;;;1540324;28;83490;-74
2022/04/13 08:51:38;;;;;;;;;6.75;6.75;;;;;;;;1542787;28;83536;-74
2022/04/13 08:52:24;;;;;;;;;6.00;6.00;;;;;;;;1544951;28;83512;-74
2022/04/13 08:53:12;;;;;;;;;8.25;8.25;;;;;;;;1546639;28;83520;-74
2022/04/13 08:54:04;;;;;;;;;7.00;7.00;;;;;;;;1546660;28;83390;-74
2022/04/13 08:55:04;;;;;;;;;6.25;6.25;;;;;;;;1546467;28;83243;-74
2022/04/13 08:55:53;;;;;;;;;8.00;8.00;;;;;;;;1546683;28;83394;-74
2022/04/13 08:56:39;;;;;;;;;8.50;8.50;;;;;;;;1546706;28;83440;-74
2022/04/13 08:57:25;;;;;;;;;9.00;9.00;;;;;;;;1547842;28;83268;-74
2022/04/13 08:58:23;;;;;;;;;6.20;6.20;;;;;;;;1540448;28;83386;-74
2022/04/13 08:59:15;;;;;;;;;7.00;7.00;;;;;;;;1540548;28;83822;-75
2022/04/13 09:00:08;;;;;;;;;6.00;6.00;;;;;;;;1540654;28;83584;-75
2022/04/13 09:00:57;;;;;;;;;6.40;6.40;;;;;;;;1540462;28;84009;-75
2022/04/13 09:01:50;;;;;;;;;6.20;6.20;;;;;;;;1540441;28;83660;-76
2022/04/13 09:02:38;;;;;;;;;5.00;5.00;;;;;;;;1536290;28;83703;-75
2022/04/13 09:03:30;;;;;;;;;6.00;6.00;;;;;;;;1536650;28;83612;-74
2022/04/13 09:04:16;;;;;;;;;6.20;6.20;;;;;;;;1536505;28;83845;-74
2022/04/13 09:05:06;;;;;;;;;4.00;4.00;;;;;;;;1538770;28;83267;-75
2022/04/13 09:05:54;;;;;;;;;6.40;6.40;;;;;;;;1548654;28;83413;-80
2022/04/13 09:06:42;;;;;;;;;5.60;5.60;;;;;;;;1544077;28;83423;-80
2022/04/13 09:07:30;;;;;;;;;6.00;6.00;;;;;;;;1537213;28;83592;-78
2022/04/13 09:08:18;;;;;;;;;6.40;6.40;;;;;;;;1540477;28;86789;-77
2022/04/13 09:09:05;;;;;;;;;5.40;5.40;;;;;;;;1541638;28;83370;-76
2022/04/13 09:09:53;;;;;;;;;7.40;7.40;;;;;;;;1541712;28;83533;-76
2022/04/13 09:10:39;;;;;;;;;5.80;5.80;;;;;;;;1541850;28;83488;-72
2022/04/13 09:11:24;;;;;;;;;7.00;7.00;;;;;;;;1542295;28;83688;-80
2022/04/13 09:12:11;;;;;;;;;7.00;7.00;;;;;;;;1542253;28;83375;-77
2022/04/13 09:12:57;;;;;;;;;5.60;5.60;;;;;;;;1542125;28;83701;-75
2022/04/13 09:13:46;;;;;;;;;7.00;7.00;;;;;;;;1542137;28;83480;-76
2022/04/13 09:14:32;;;;;;;;;6.00;6.00;;;;;;;;1542346;28;83688;-76
2022/04/13 09:15:18;;;;;;;;;6.20;6.20;;;;;;;;1542470;28;83809;-80
2022/04/13 09:16:04;;;;;;;;;7.00;7.00;;;;;;;;1542426;28;83907;-78
2022/04/13 09:16:50;;;;;;;;;5.60;5.60;;;;;;;;1541829;28;83448;-76
2022/04/13 09:17:35;;;;;;;;;5.60;5.60;;;;;;;;1542149;28;83599;-74
2022/04/13 09:18:20;;;;;;;;;5.00;5.00;;;;;;;;1542065;28;83452;-76
2022/04/13 09:19:06;;;;;;;;;6.00;6.00;;;;;;;;1542179;28;83402;-78
2022/04/13 09:19:51;;;;;;;;;4.50;4.50;;;;;;;;1545184;28;83229;-77
2022/04/13 09:20:37;;;;;;;;;6.25;6.25;;;;;;;;1543272;28;83893;-75
2022/04/13 09:21:22;;;;;;;;;4.00;4.00;;;;;;;;1544360;28;83988;-75
2022/04/13 09:22:08;;;;;;;;;4.00;4.00;;;;;;;;1541263;28;84382;-74
2022/04/13 09:22:54;;;;;;;;;4.00;4.00;;;;;;;;1542126;28;83965;-76
2022/04/13 09:23:40;;;;;;;;;4.00;4.00;;;;;;;;1541008;28;83500;-78
2022/04/13 09:24:29;;;;;;;;;4.80;4.80;;;;;;;;1541030;28;84672;-75
2022/04/13 09:25:14;;;;;;;;;4.00;4.00;;;;;;;;1538604;28;84418;-87
2022/04/13 09:26:00;;;;;;;;;5.00;5.00;;;;;;;;1541616;28;83802;-78
2022/04/13 09:26:45;;;;;;;;;4.00;4.00;;;;;;;;1541407;28;85039;-78
2022/04/13 09:27:32;;;;;;;;;3.60;3.60;;;;;;;;1541914;28;83995;-75
2022/04/13 09:28:17;;;;;;;;;4.40;4.40;;;;;;;;1542267;28;84043;-76
2022/04/13 09:29:02;;;;;;;;;3.50;3.50;;;;;;;;1538951;28;83984;-75
2022/04/13 09:29:48;;;;;;;;;5.50;5.50;;;;;;;;1541761;28;84003;-78
2022/04/13 09:30:33;;;;;;;;;7.00;7.00;;;;;;;;1542461;28;83779;-77
2022/04/13 09:31:19;;;;;;;;;5.00;5.00;;;;;;;;1542041;28;83907;-77
2022/04/13 09:32:05;;;;;;;;;5.40;5.40;;;;;;;;1542381;28;83817;-76
2022/04/13 09:32:50;;;;;;;;;4.50;4.50;;;;;;;;1541631;28;84322;-76
2022/04/13 09:33:35;;;;;;;;;4.50;4.50;;;;;;;;1536145;28;84375;-77
2022/04/13 09:34:21;;;;;;;;;6.00;6.00;;;;;;;;1537356;28;84203;-77
2022/04/13 09:35:07;;;;;;;;;5.00;5.00;;;;;;;;1548233;28;83970;-78
2022/04/13 09:35:53;;;;;;;;;4.40;4.40;;;;;;;;1545883;28;84140;-76
2022/04/13 09:36:38;;;;;;;;;5.00;5.00;;;;;;;;1541729;28;84011;-76
2022/04/13 09:37:24;;;;;;;;;6.00;6.00;;;;;;;;1541619;28;84099;-78
2022/04/13 09:38:09;;;;;;;;;5.00;5.00;;;;;;;;1541847;28;83069;-75
2022/04/13 09:38:56;;;;;;;;;4.25;4.25;;;;;;;;1543099;28;84432;-77
2022/04/13 09:39:42;;;;;;;;;7.00;7.00;;;;;;;;1548313;28;84505;-78
2022/04/13 09:40:27;;;;;;;;;5.00;5.00;;;;;;;;1548520;28;83978;-79
2022/04/13 09:41:12;;;;;;;;;6.00;6.00;;;;;;;;1544388;28;83368;-80
2022/04/13 09:42:01;;;;;;;;;8.00;8.00;;;;;;;;1543737;28;84452;-80
2022/04/13 09:42:46;;;;;;;;;5.00;5.00;;;;;;;;1542445;28;83130;-80
2022/04/13 09:43:31;;;;;;;;;5.25;5.25;;;;;;;;1542020;28;83264;-79
2022/04/13 09:44:19;;;;;;;;;4.00;4.00;;;;;;;;1542022;28;83457;-79
2022/04/13 09:45:05;;;;;;;;;5.00;5.00;;;;;;;;1544369;28;83460;-79
2022/04/13 09:45:51;;;;;;;;;7.00;7.00;;;;;;;;1547434;28;83097;-74
2022/04/13 09:46:36;;;;;;;;;5.60;5.60;;;;;;;;1542183;28;83320;-75
2022/04/13 09:47:23;;;;;;;;;4.25;4.25;;;;;;;;1542166;28;83512;-74
2022/04/13 09:48:10;;;;;;;;;4.00;4.00;;;;;;;;1541321;28;84902;-76
2022/04/13 09:49:07;;;;;;;;;6.40;6.40;;;;;;;;1541944;28;83416;-76
2022/04/13 09:49:53;;;;;;;;;5.00;5.00;;;;;;;;1541936;28;83043;-75
2022/04/13 09:50:40;;;;;;;;;5.00;5.00;;;;;;;;1542124;28;83468;-77
2022/04/13 09:51:34;;;;;;;;;5.80;5.80;;;;;;;;1540859;28;83483;-77
2022/04/13 09:52:25;;;;;;;;;4.00;4.00;;;;;;;;1538264;28;83326;-76
2022/04/13 09:53:12;;;;;;;;;3.20;3.20;;;;;;;;1541982;28;83780;-77
2022/04/13 09:54:03;;;;;;;;;5.40;5.40;;;;;;;;1541664;28;83432;-76
2022/04/13 09:54:48;;;;;;;;;5.00;5.00;;;;;;;;1540893;28;83200;-76
2022/04/13 09:55:39;;;;;;;;;5.25;5.25;;;;;;;;1542125;28;83412;-79
2022/04/13 09:56:27;;;;;;;;;6.20;6.20;;;;;;;;1542985;28;83559;-79
2022/04/13 09:57:22;;;;;;;;;6.00;6.00;;;;;;;;1541436;28;83358;-79
2022/04/13 09:58:09;;;;;;;;;6.00;6.00;;;;;;;;1548050;28;83335;-79
2022/04/13 09:58:54;;;;;;;;;5.80;5.80;;;;;;;;1548044;28;83251;-79
2022/04/13 09:59:40;;;;;;;;;6.00;6.00;;;;;;;;1542517;28;83099;-79
2022/04/13 10:00:25;;;;;;;;;6.25;6.25;;;;;;;;1541817;28;83454;-79
2022/04/13 10:01:10;;;;;;;;;6.25;6.25;;;;;;;;1541776;28;83824;-78
2022/04/13 10:01:56;;;;;;;;;6.25;6.25;;;;;;;;1541361;28;84644;-79
2022/04/13 10:02:42;;;;;;;;;7.40;7.40;;;;;;;;1541923;28;83389;-78
2022/04/13 10:03:28;;;;;;;;;7.00;7.00;;;;;;;;1541478;28;83535;-77
2022/04/13 10:04:23;;;;;;;;;6.75;6.75;;;;;;;;1544465;28;83568;-78
2022/04/13 10:05:10;;;;;;;;;6.40;6.40;;;;;;;;1542057;28;83779;-77
2022/04/13 10:05:56;;;;;;;;;6.20;6.20;;;;;;;;1541407;28;83629;-76
2022/04/13 10:06:42;;;;;;;;;6.60;6.60;;;;;;;;1541255;28;84552;-75
2022/04/13 10:07:28;;;;;;;;;7.00;7.00;;;;;;;;1539511;28;83342;-73
2022/04/13 10:08:14;;;;;;;;;5.50;5.50;;;;;;;;1539817;28;84036;-73
2022/04/13 10:09:06;;;;;;;;;6.60;6.60;;;;;;;;1541393;28;83436;-76
2022/04/13 10:09:51;;;;;;;;;6.00;6.00;;;;;;;;1540739;28;84172;-74
2022/04/13 10:10:43;;;;;;;;;6.00;6.00;;;;;;;;1541636;28;83315;-74
2022/04/13 10:11:29;;;;;;;;;6.60;6.60;;;;;;;;1540458;28;84612;-75
2022/04/13 10:12:14;;;;;;;;;6.25;6.25;;;;;;;;1541314;28;83371;-74
2022/04/13 10:12:59;;;;;;;;;5.75;5.75;;;;;;;;1541506;28;83711;-72
2022/04/13 10:13:46;;;;;;;;;8.00;8.00;;;;;;;;1541905;28;83357;-75
2022/04/13 10:14:32;;;;;;;;;6.00;6.00;;;;;;;;1540739;28;84108;-74
2022/04/13 10:15:17;;;;;;;;;3.00;3.00;;;;;;;;1540411;28;83591;-74
2022/04/13 10:16:09;;;;;;;;;3.00;3.00;;;;;;;;1541385;28;84598;-74
2022/04/13 10:16:57;;;;;;;;;2.60;2.60;;;;;;;;1541266;28;83502;-73
2022/04/13 10:17:42;;;;;;;;;1.00;1.00;;;;;;;;1541426;28;83485;-73
2022/04/13 10:18:28;;;;;;;;;1.00;1.00;;;;;;;;1541696;28;83742;-76
2022/04/13 10:19:18;;;;;;;;;1.50;1.50;;;;;;;;1542016;28;83326;-74
2022/04/13 10:20:03;;;;;;;;;2.00;2.00;;;;;;;;1541990;28;83582;-73
2022/04/13 10:20:49;;;;;;;;;1.00;1.00;;;;;;;;1541760;28;83788;-76
2022/04/13 10:21:47;;;;;;;;;1.75;1.75;;;;;;;;1539953;28;83929;-74
2022/04/13 10:22:32;;;;;;;;;0.80;0.80;;;;;;;;1541826;28;83278;-73
2022/04/13 10:23:17;;;;;;;;;1.50;1.50;;;;;;;;1541230;28;83569;-74
2022/04/13 10:24:03;;;;;;;;;1.00;1.00;;;;;;;;1542384;28;83971;-74
2022/04/13 10:24:48;;;;;;;;;1.00;1.00;;;;;;;;1542735;28;83284;-73
2022/04/13 10:25:34;;;;;;;;;1.25;1.25;;;;;;;;1541716;28;83964;-74
2022/04/13 10:26:19;;;;;;;;;0.00;0.00;;;;;;;;1541356;28;84001;-74
2022/04/13 10:27:05;;;;;;;;;0.00;0.00;;;;;;;;1538955;28;84019;-74
2022/04/13 10:28:00;;;;;;;;;0.00;0.00;;;;;;;;1545650;28;83775;-75
2022/04/13 10:28:46;;;;;;;;;0.20;0.20;;;;;;;;1547846;28;85681;-79
2022/04/13 10:29:32;;;;;;;;;0.00;0.00;;;;;;;;1542379;28;83888;-78
2022/04/13 10:30:24;;;;;;;;;0.00;0.00;;;;;;;;1541860;28;84052;-78
2022/04/13 10:31:09;;;;;;;;;0.00;0.00;;;;;;;;1544016;28;84100;-78
2022/04/13 10:32:04;;;;;;;;;0.00;0.00;;;;;;;;1548235;28;83182;-79
2022/04/13 10:32:56;;;;;;;;;0.40;0.40;;;;;;;;1548338;28;84081;-78
2022/04/13 10:33:48;;;;;;;;;1.00;1.00;;;;;;;;1541165;28;84047;-78
2022/04/13 10:34:34;;;;;;;;;0.40;0.40;;;;;;;;1541897;28;84200;-78
2022/04/13 10:35:19;;;;;;;;;0.00;0.00;;;;;;;;1541806;28;83221;-79
2022/04/13 10:36:05;;;;;;;;;0.00;0.00;;;;;;;;1539897;28;83864;-79
2022/04/13 10:36:50;;;;;;;;;1.00;1.00;;;;;;;;1542209;28;83212;-77
2022/04/13 10:37:35;;;;;;;;;1.00;1.00;;;;;;;;1541701;28;83926;-78
2022/04/13 10:38:20;;;;;;;;;1.00;1.00;;;;;;;;1541856;28;83941;-77
2022/04/13 10:39:05;;;;;;;;;1.00;1.00;;;;;;;;1541934;28;83880;-76
2022/04/13 10:39:58;;;;;;;;;1.00;1.00;;;;;;;;1542089;28;83164;-75
2022/04/13 10:40:43;;;;;;;;;1.00;1.00;;;;;;;;1541984;28;83759;-75
2022/04/13 10:41:29;;;;;;;;;0.75;0.75;;;;;;;;1540026;28;83125;-75
2022/04/13 10:42:15;;;;;;;;;0.00;0.00;;;;;;;;1541875;28;83909;-75
2022/04/13 10:43:03;;;;;;;;;0.80;0.80;;;;;;;;1541739;28;83995;-75
2022/04/13 10:43:50;;;;;;;;;0.00;0.00;;;;;;;;1542207;28;83187;-75
2022/04/13 10:44:37;;;;;;;;;0.00;0.00;;;;;;;;1541778;28;83985;-75
2022/04/13 10:45:23;;;;;;;;;0.40;0.40;;;;;;;;1535850;28;83978;-75
2022/04/13 10:46:09;;;;;;;;;1.00;1.00;;;;;;;;1535899;28;82997;-75
2022/04/13 10:46:57;;;;;;;;;2.00;2.00;;;;;;;;1535288;28;84350;-75
2022/04/13 10:47:52;;;;;;;;;0.00;0.00;;;;;;;;1535749;28;84095;-75
2022/04/13 10:48:40;;;;;;;;;0.40;0.40;;;;;;;;1541819;28;84178;-75
2022/04/13 10:49:28;;;;;;;;;0.80;0.80;;;;;;;;1544629;28;83882;-75
2022/04/13 10:50:14;;;;;;;;;0.00;0.00;;;;;;;;1541697;28;83098;-75
2022/04/13 10:51:06;;;;;;;;;0.20;0.20;;;;;;;;1539848;28;83408;-75
2022/04/13 10:51:53;;;;;;;;;0.00;0.00;;;;;;;;1541132;28;84995;-75
2022/04/13 10:52:44;;;;;;;;;1.00;1.00;;;;;;;;1541580;28;82973;-75
2022/04/13 10:53:30;;;;;;;;;1.00;1.00;;;;;;;;1541688;28;83355;-75
2022/04/13 10:54:16;;;;;;;;;0.80;0.80;;;;;;;;1541550;28;83348;-76
2022/04/13 10:55:03;;;;;;;;;0.00;0.00;;;;;;;;1541838;28;83358;-75
2022/04/13 10:55:51;;;;;;;;;0.00;0.00;;;;;;;;1540866;28;83883;-76
2022/04/13 10:56:39;;;;;;;;;0.00;0.00;;;;;;;;1535984;28;83518;-76
2022/04/13 10:57:25;;;;;;;;;0.40;0.40;;;;;;;;1535086;28;83494;-76
2022/04/13 10:58:29;;;;;;;;;0.00;0.00;;;;;;;;1539890;28;83493;-76
2022/04/13 10:59:32;;;;;;;;;0.00;0.00;;;;;;;;1541884;28;83095;-77
2022/04/13 11:00:18;;;;;;;;;1.00;1.00;;;;;;;;1536012;28;83287;-77
2022/04/13 11:01:05;;;;;;;;;0.40;0.40;;;;;;;;1535539;28;83471;-78
2022/04/13 11:02:13;;;;;;;;;1.00;1.00;;;;;;;;1535722;28;83176;-77
2022/04/13 11:03:02;;;;;;;;;0.60;0.60;;;;;;;;1534387;28;83453;-77
2022/04/13 11:03:47;;;;;;;;;0.00;0.00;;;;;;;;1535338;28;83578;-77
2022/04/13 11:04:33;;;;;;;;;1.00;1.00;;;;;;;;1535263;28;83660;-77
2022/04/13 11:05:18;;;;;;;;;0.00;0.00;;;;;;;;1535036;28;83492;-77
2022/04/13 11:06:05;;;;;;;;;0.25;0.25;;;;;;;;1540656;28;83601;-77
2022/04/13 11:06:51;;;;;;;;;1.00;1.00;;;;;;;;1541518;28;83480;-77
2022/04/13 11:07:37;;;;;;;;;1.00;1.00;;;;;;;;1541355;28;83916;-77
2022/04/13 11:08:25;;;;;;;;;1.00;1.00;;;;;;;;1541119;28;83484;-77
2022/04/13 11:09:17;;;;;;;;;2.00;2.00;;;;;;;;1541438;28;83042;-77
2022/04/13 11:10:04;;;;;;;;;0.00;0.00;;;;;;;;1541345;28;83483;-77
2022/04/13 11:10:50;;;;;;;;;0.00;0.00;;;;;;;;1538452;28;83241;-79
2022/04/13 11:11:36;;;;;;;;;0.00;0.00;;;;;;;;1535111;28;83662;-76
2022/04/13 11:12:23;;;;;;;;;0.00;0.00;;;;;;;;1535251;28;83409;-77
2022/04/13 11:13:08;;;;;;;;;1.60;1.60;;;;;;;;1537864;28;83154;-77
2022/04/13 11:13:53;;;;;;;;;1.25;1.00;;;;;;;;1535390;28;83587;-79
2022/04/13 11:14:51;;;;;;;;;0.25;0.25;;;;;;;;1535307;28;83348;-76
2022/04/13 11:15:37;;;;;;;;;0.20;0.20;;;;;;;;1535206;28;84220;-77
2022/04/13 11:16:23;;;;;;;;;0.00;0.00;;;;;;;;1535261;28;83405;-77
2022/04/13 11:17:08;;;;;;;;;0.00;0.00;;;;;;;;1535222;28;83505;-76
2022/04/13 11:18:06;;;;;;;;;0.00;0.00;;;;;;;;1535302;28;83673;-77
2022/04/13 11:19:01;;;;;;;;;0.00;0.00;;;;;;;;1529286;28;83821;-77
2022/04/13 11:19:47;;;;;;;;;0.00;0.00;;;;;;;;1528870;28;83719;-77
2022/04/13 11:20:32;;;;;;;;;0.00;0.00;;;;;;;;1534922;28;84082;-77
2022/04/13 11:21:18;;;;;;;;;0.00;0.00;;;;;;;;1541191;28;83548;-76
2022/04/13 11:22:03;;;;;;;;;0.00;0.00;;;;;;;;1541463;28;83734;-77
2022/04/13 11:23:23;;;;;;;;;0.00;0.00;;;;;;;;1541302;28;83712;-77
2022/04/13 11:24:28;;;;;;;;;0.00;0.00;;;;;;;;1517242;28;83179;-77
2022/04/13 11:25:43;;;;;;;;;0.00;0.00;;;;;;;;1511674;28;83597;-77
2022/04/13 11:26:29;;;;;;;;;0.00;0.00;;;;;;;;1506948;28;83847;-77
2022/04/13 11:27:14;;;;;;;;;0.00;0.00;;;;;;;;1511959;28;83276;-73
2022/04/13 11:28:00;;;;;;;;;0.00;0.00;;;;;;;;1511261;28;83784;-77
2022/04/13 11:28:45;;;;;;;;;0.00;0.00;;;;;;;;1511526;28;84011;-77
2022/04/13 11:29:34;;;;;;;;;0.00;0.00;;;;;;;;1511236;28;83689;-77
2022/04/13 11:30:19;;;;;;;;;0.00;0.00;;;;;;;;1511016;28;83831;-77
2022/04/13 11:31:08;;;;;;;;;0.00;0.00;;;;;;;;1510980;28;83411;-76
2022/04/13 11:31:59;;;;;;;;;0.00;0.00;;;;;;;;1511353;28;84133;-77
2022/04/13 11:32:45;;;;;;;;;1.00;1.00;;;;;;;;1510952;28;84853;-78
2022/04/13 11:33:48;;;;;;;;;0.00;0.00;;;;;;;;1515276;28;83569;-78
2022/04/13 11:34:39;;;;;;;;;0.00;0.00;;;;;;;;1511061;28;84006;-77
2022/04/13 11:35:26;;;;;;;;;0.00;0.00;;;;;;;;1510611;28;83742;-79
2022/04/13 11:36:11;;;;;;;;;0.00;0.00;;;;;;;;1510979;28;83569;-78
2022/04/13 11:37:00;;;;;;;;;0.00;0.00;;;;;;;;1514032;28;84076;-77
2022/04/13 11:38:01;;;;;;;;;0.00;0.00;;;;;;;;1512344;28;84741;-73
2022/04/13 11:38:47;;;;;;;;;0.00;0.00;;;;;;;;1517197;28;83199;-73
2022/04/13 11:39:51;;;;;;;;;0.00;0.00;;;;;;;;1517044;28;83389;-74
2022/04/13 11:40:56;;;;;;;;;0.00;0.00;;;;;;;;1515223;28;84595;-73
2022/04/13 11:41:51;;;;;;;;;0.00;0.00;;;;;;;;1516803;28;83840;-73
2022/04/13 11:42:37;;;;;;;;;0.00;0.00;;;;;;;;1516862;28;84496;-74
2022/04/13 11:43:22;;;;;;;;;0.00;0.00;;;;;;;;1515478;28;84752;-74
2022/04/13 11:44:16;;;;;;;;;0.00;0.00;;;;;;;;1517026;28;83904;-73
2022/04/13 11:45:03;;;;;;;;;0.00;0.00;;;;;;;;1516965;28;84002;-72
2022/04/13 11:45:54;;;;;;;;;0.00;0.00;;;;;;;;1516864;28;83132;-72
2022/04/13 11:46:41;;;;;;;;;0.00;0.00;;;;;;;;1516799;28;84024;-73
2022/04/13 11:47:37;;;;;;;;;0.00;0.00;;;;;;;;1516921;28;83915;-72
2022/04/13 11:48:33;;;;;;;;;0.00;0.00;;;;;;;;1516569;28;84173;-73
2022/04/13 11:49:18;;;;;;;;;0.00;0.00;;;;;;;;1517026;28;84348;-74
2022/04/13 11:50:17;;;;;;;;;0.00;0.00;;;;;;;;1516132;28;83846;-73
2022/04/13 11:51:38;;;;;;;;;0.00;0.00;;;;;;;;1510937;28;84189;-72
2022/04/13 11:52:38;;;;;;;;;0.00;0.00;;;;;;;;1510963;28;84105;-72
2022/04/13 11:53:23;;;;;;;;;0.00;0.00;;;;;;;;1511011;28;84026;-73
2022/04/13 11:54:10;;;;;;;;;0.00;0.00;;;;;;;;1510944;28;83916;-73
2022/04/13 11:54:55;;;;;;;;;0.00;0.00;;;;;;;;1511020;28;84172;-72
2022/04/13 11:55:40;;;;;;;;;0.00;0.00;;;;;;;;1510390;28;83901;-72
2022/04/13 11:56:33;;;;;;;;;0.00;0.00;;;;;;;;1510960;28;83694;-73
2022/04/13 11:57:18;;;;;;;;;0.00;0.00;;;;;;;;1511004;28;84019;-73
2022/04/13 11:58:04;;;;;;;;;0.00;0.00;;;;;;;;1511083;28;83165;-73
2022/04/13 11:58:50;;;;;;;;;0.00;0.00;;;;;;;;1517067;28;83488;-83
2022/04/13 11:59:50;;;;;;;;;0.00;0.00;;;;;;;;1522982;28;87301;-73
2022/04/13 12:00:44;;;;;;;;;0.00;0.00;;;;;;;;1522811;28;85349;-75
2022/04/13 12:01:30;;;;;;;;;0.00;0.00;;;;;;;;1532763;28;83405;-75
2022/04/13 12:02:16;;;;;;;;;0.00;0.00;;;;;;;;1537599;28;83163;-74
2022/04/13 12:03:01;;;;;;;;;0.50;0.00;;;;;;;;1534043;28;83569;-73
2022/04/13 12:03:47;;;;;;;;;0.25;0.00;;;;;;;;1534807;28;83591;-73
2022/04/13 12:04:33;;;;;;;;;0.00;0.00;;;;;;;;1534795;28;83477;-74
2022/04/13 12:05:18;;;;;;;;;0.00;0.00;;;;;;;;1530967;28;83442;-73
2022/04/13 12:06:07;;;;;;;;;0.00;0.00;;;;;;;;1532801;28;83274;-74
2022/04/13 12:06:52;;;;;;;;;0.00;0.00;;;;;;;;1537576;28;83432;-73
2022/04/13 12:07:40;;;;;;;;;0.00;0.00;;;;;;;;1540983;28;83566;-73
2022/04/13 12:08:27;;;;;;;;;0.00;0.00;;;;;;;;1538726;28;83466;-74
2022/04/13 12:09:13;;;;;;;;;0.00;0.00;;;;;;;;1534928;28;83393;-73
2022/04/13 12:09:59;;;;;;;;;1.00;0.00;;;;;;;;1533883;28;83024;-74
2022/04/13 12:10:48;;;;;;;;;0.00;0.00;;;;;;;;1529478;28;83782;-74
2022/04/13 12:11:51;;;;;;;;;0.00;0.00;;;;;;;;1528879;28;83349;-74
2022/04/13 12:12:49;;;;;;;;;0.00;0.00;;;;;;;;1528764;28;83247;-74
2022/04/13 12:13:52;;;;;;;;;0.00;0.00;;;;;;;;1528895;28;83367;-73
2022/04/13 12:14:40;;;;;;;;;0.40;0.40;;;;;;;;1528764;28;83329;-73
2022/04/13 12:15:25;;;;;;;;;0.00;0.00;;;;;;;;1528774;28;83266;-74
2022/04/13 12:16:15;;;;;;;;;0.00;0.00;;;;;;;;1528781;28;83407;-73
2022/04/13 12:17:02;;;;;;;;;0.00;0.00;;;;;;;;1528981;28;83336;-74
2022/04/13 12:17:47;;;;;;;;;0.60;0.00;;;;;;;;1528380;28;83465;-73
2022/04/13 12:18:33;;;;;;;;;0.00;0.00;;;;;;;;1528710;28;83419;-74
2022/04/13 12:19:18;;;;;;;;;0.00;0.00;;;;;;;;1533737;28;83016;-77
2022/04/13 12:20:04;;;;;;;;;0.00;0.00;;;;;;;;1536531;28;83689;-77
2022/04/13 12:20:50;;;;;;;;;0.00;0.00;;;;;;;;1528778;28;83549;-77
2022/04/13 12:21:36;;;;;;;;;0.00;0.00;;;;;;;;1528764;28;83661;-77
2022/04/13 12:22:22;;;;;;;;;0.00;0.00;;;;;;;;1531223;28;83330;-76
2022/04/13 12:23:19;;;;;;;;;0.00;0.00;;;;;;;;1534509;28;83383;-75
2022/04/13 12:24:05;;;;;;;;;0.00;0.00;;;;;;;;1534722;28;83181;-74
2022/04/13 12:25:04;;;;;;;;;0.00;0.00;;;;;;;;1539871;28;83286;-72
2022/04/13 12:25:50;;;;;;;;;0.40;0.00;;;;;;;;1528880;28;83359;-74
2022/04/13 12:26:44;;;;;;;;;0.00;0.00;;;;;;;;1528789;28;83785;-76
2022/04/13 12:27:30;;;;;;;;;0.00;0.00;;;;;;;;1534134;28;83696;-75
2022/04/13 12:28:15;;;;;;;;;0.00;0.00;;;;;;;;1535680;28;83699;-79
2022/04/13 12:29:09;;;;;;;;;0.75;0.00;;;;;;;;1535836;28;83256;-76
2022/04/13 12:30:10;;;;;;;;;0.00;0.00;;;;;;;;1535727;28;83615;-75
2022/04/13 12:30:59;;;;;;;;;0.00;0.00;;;;;;;;1535589;28;83644;-75
2022/04/13 12:31:47;;;;;;;;;0.00;0.00;;;;;;;;1535315;28;83708;-76
2022/04/13 12:32:32;;;;;;;;;0.00;0.00;;;;;;;;1535129;28;83351;-75
2022/04/13 12:33:22;;;;;;;;;0.00;0.00;;;;;;;;1535384;28;83626;-76
2022/04/13 12:34:08;;;;;;;;;1.00;1.00;;;;;;;;1535588;28;85625;-77
2022/04/13 12:34:59;;;;;;;;;0.00;0.00;;;;;;;;1538852;28;83516;-76
2022/04/13 12:35:52;;;;;;;;;0.00;0.00;;;;;;;;1535111;28;83578;-76
2022/04/13 12:36:38;;;;;;;;;0.00;0.00;;;;;;;;1535572;28;83209;-76
2022/04/13 12:37:23;;;;;;;;;0.00;0.00;;;;;;;;1535688;28;83515;-76
2022/04/13 12:38:19;;;;;;;;;0.00;0.00;;;;;;;;1536747;28;83840;-76
2022/04/13 12:39:08;;;;;;;;;0.00;0.00;;;;;;;;1536658;28;83239;-76
2022/04/13 12:39:55;;;;;;;;;0.00;0.00;;;;;;;;1539841;28;83333;-76